sensor_id;sensor_type;location;lat;lon;timestamp;P1;durP1;ratioP1;P2;durP2;ratioP2
7821;SDS011;3956;50.558;9.678;2022-09-12T00:02:01;9.57;;;6.07;;
7821;SDS011;3956;50.558;9.678;2022-09-12T00:04:30;10.63;;;6.77;;
7821;SDS011;3956;50.558;9.678;2022-09-12T00:06:59;11.73;;;6.33;;
7821;SDS011;3956;50.558;9.678;2022-09-12T00:09:29;6.83;;;5.80;;
7821;SDS011;3956;50.558;9.678;2022-09-12T00:12:03;7.73;;;5.97;;
7821;SDS011;3956;50.558;9.678;2022-09-12T00:14:35;6.90;;;6.20;;
7821;SDS011;3956;50.558;9.678;2022-09-12T00:17:04;9.07;;;6.63;;
7821;SDS011;3956;50.558;9.678;2022-09-12T00:19:32;7.10;;;6.40;;
7821;SDS011;3956;50.558;9.678;2022-09-12T00:22:01;8.27;;;6.30;;
7821;SDS011;3956;50.558;9.678;2022-09-12T00:24:29;10.60;;;6.23;;
7821;SDS011;3956;50.558;9.678;2022-09-12T00:26:59;8.60;;;6.07;;
7821;SDS011;3956;50.558;9.678;2022-09-12T00:29:29;5.83;;;5.23;;
7821;SDS011;3956;50.558;9.678;2022-09-12T00:31:57;6.73;;;4.83;;
7821;SDS011;3956;50.558;9.678;2022-09-12T00:34:26;7.83;;;5.50;;
7821;SDS011;3956;50.558;9.678;2022-09-12T00:36:55;5.53;;;4.60;;
7821;SDS011;3956;50.558;9.678;2022-09-12T00:39:23;6.07;;;4.97;;
7821;SDS011;3956;50.558;9.678;2022-09-12T00:41:51;6.57;;;5.00;;
7821;SDS011;3956;50.558;9.678;2022-09-12T00:47:21;6.77;;;4.73;;
7821;SDS011;3956;50.558;9.678;2022-09-12T00:49:54;5.33;;;4.83;;
7821;SDS011;3956;50.558;9.678;2022-09-12T00:52:28;5.77;;;4.27;;
7821;SDS011;3956;50.558;9.678;2022-09-12T00:55:02;5.00;;;4.50;;
7821;SDS011;3956;50.558;9.678;2022-09-12T00:57:35;5.30;;;4.80;;
7821;SDS011;3956;50.558;9.678;2022-09-12T01:00:09;5.33;;;4.83;;
7821;SDS011;3956;50.558;9.678;2022-09-12T01:02:41;6.23;;;4.50;;
7821;SDS011;3956;50.558;9.678;2022-09-12T01:05:10;5.47;;;4.83;;
7821;SDS011;3956;50.558;9.678;2022-09-12T01:07:40;7.03;;;5.23;;
7821;SDS011;3956;50.558;9.678;2022-09-12T01:10:10;7.00;;;4.70;;
7821;SDS011;3956;50.558;9.678;2022-09-12T01:12:39;8.60;;;5.37;;
7821;SDS011;3956;50.558;9.678;2022-09-12T01:15:10;6.53;;;5.37;;
7821;SDS011;3956;50.558;9.678;2022-09-12T01:17:42;5.67;;;5.17;;
7821;SDS011;3956;50.558;9.678;2022-09-12T01:20:31;7.50;;;5.10;;
7821;SDS011;3956;50.558;9.678;2022-09-12T01:23:36;7.70;;;5.13;;
7821;SDS011;3956;50.558;9.678;2022-09-12T01:26:34;6.23;;;5.40;;
7821;SDS011;3956;50.558;9.678;2022-09-12T01:29:24;7.13;;;4.70;;
7821;SDS011;3956;50.558;9.678;2022-09-12T01:32:28;5.63;;;5.00;;
7821;SDS011;3956;50.558;9.678;2022-09-12T01:35:05;9.63;;;5.43;;
7821;SDS011;3956;50.558;9.678;2022-09-12T01:37:43;7.47;;;5.37;;
7821;SDS011;3956;50.558;9.678;2022-09-12T01:40:21;7.00;;;6.30;;
7821;SDS011;3956;50.558;9.678;2022-09-12T01:42:55;8.87;;;6.03;;
7821;SDS011;3956;50.558;9.678;2022-09-12T01:45:36;6.87;;;5.70;;
7821;SDS011;3956;50.558;9.678;2022-09-12T01:48:12;9.23;;;6.17;;
7821;SDS011;3956;50.558;9.678;2022-09-12T01:50:47;8.63;;;4.93;;
7821;SDS011;3956;50.558;9.678;2022-09-12T01:53:19;5.83;;;4.77;;
7821;SDS011;3956;50.558;9.678;2022-09-12T01:55:53;9.43;;;5.20;;
7821;SDS011;3956;50.558;9.678;2022-09-12T01:58:27;9.57;;;5.40;;
7821;SDS011;3956;50.558;9.678;2022-09-12T02:01:02;12.10;;;6.20;;
7821;SDS011;3956;50.558;9.678;2022-09-12T02:03:36;36.87;;;7.10;;
7821;SDS011;3956;50.558;9.678;2022-09-12T02:06:11;23.93;;;7.30;;
7821;SDS011;3956;50.558;9.678;2022-09-12T02:08:45;9.33;;;7.33;;
7821;SDS011;3956;50.558;9.678;2022-09-12T02:11:18;11.63;;;7.20;;
7821;SDS011;3956;50.558;9.678;2022-09-12T02:13:48;16.33;;;8.17;;
7821;SDS011;3956;50.558;9.678;2022-09-12T02:16:22;8.23;;;6.77;;
7821;SDS011;3956;50.558;9.678;2022-09-12T02:18:57;7.47;;;6.23;;
7821;SDS011;3956;50.558;9.678;2022-09-12T02:21:35;10.90;;;6.80;;
7821;SDS011;3956;50.558;9.678;2022-09-12T02:24:06;12.97;;;8.00;;
7821;SDS011;3956;50.558;9.678;2022-09-12T02:26:38;9.70;;;7.60;;
7821;SDS011;3956;50.558;9.678;2022-09-12T02:29:10;25.63;;;9.27;;
7821;SDS011;3956;50.558;9.678;2022-09-12T02:31:39;19.50;;;8.60;;
7821;SDS011;3956;50.558;9.678;2022-09-12T02:34:21;41.60;;;9.90;;
7821;SDS011;3956;50.558;9.678;2022-09-12T02:36:58;69.60;;;10.33;;
7821;SDS011;3956;50.558;9.678;2022-09-12T02:39:32;14.47;;;8.30;;
7821;SDS011;3956;50.558;9.678;2022-09-12T02:42:01;16.27;;;7.57;;
7821;SDS011;3956;50.558;9.678;2022-09-12T02:44:31;22.73;;;7.30;;
7821;SDS011;3956;50.558;9.678;2022-09-12T02:47:04;60.23;;;9.50;;
7821;SDS011;3956;50.558;9.678;2022-09-12T02:49:38;14.20;;;9.50;;
7821;SDS011;3956;50.558;9.678;2022-09-12T02:52:06;17.07;;;10.90;;
7821;SDS011;3956;50.558;9.678;2022-09-12T02:54:35;25.13;;;10.07;;
7821;SDS011;3956;50.558;9.678;2022-09-12T02:57:04;54.27;;;10.37;;
7821;SDS011;3956;50.558;9.678;2022-09-12T02:59:48;42.37;;;10.83;;
7821;SDS011;3956;50.558;9.678;2022-09-12T03:02:30;25.00;;;11.10;;
7821;SDS011;3956;50.558;9.678;2022-09-12T03:05:10;42.83;;;12.47;;
7821;SDS011;3956;50.558;9.678;2022-09-12T03:07:54;26.87;;;9.03;;
7821;SDS011;3956;50.558;9.678;2022-09-12T03:10:44;21.07;;;7.53;;
7821;SDS011;3956;50.558;9.678;2022-09-12T03:13:35;17.80;;;7.70;;
7821;SDS011;3956;50.558;9.678;2022-09-12T03:16:18;34.53;;;8.63;;
7821;SDS011;3956;50.558;9.678;2022-09-12T03:18:59;20.83;;;9.13;;
7821;SDS011;3956;50.558;9.678;2022-09-12T03:21:39;17.37;;;8.00;;
7821;SDS011;3956;50.558;9.678;2022-09-12T03:24:16;27.70;;;8.97;;
7821;SDS011;3956;50.558;9.678;2022-09-12T03:26:47;30.30;;;9.53;;
7821;SDS011;3956;50.558;9.678;2022-09-12T03:29:21;30.70;;;10.97;;
7821;SDS011;3956;50.558;9.678;2022-09-12T03:31:53;38.43;;;11.73;;
7821;SDS011;3956;50.558;9.678;2022-09-12T03:34:24;23.03;;;9.83;;
7821;SDS011;3956;50.558;9.678;2022-09-12T03:36:58;22.27;;;9.57;;
7821;SDS011;3956;50.558;9.678;2022-09-12T03:39:37;18.17;;;9.17;;
7821;SDS011;3956;50.558;9.678;2022-09-12T03:42:06;21.67;;;10.37;;
7821;SDS011;3956;50.558;9.678;2022-09-12T03:44:34;32.30;;;10.77;;
7821;SDS011;3956;50.558;9.678;2022-09-12T03:47:03;18.07;;;11.20;;
7821;SDS011;3956;50.558;9.678;2022-09-12T03:49:36;27.97;;;10.73;;
7821;SDS011;3956;50.558;9.678;2022-09-12T03:52:06;12.73;;;8.87;;
7821;SDS011;3956;50.558;9.678;2022-09-12T03:54:34;16.40;;;8.93;;
7821;SDS011;3956;50.558;9.678;2022-09-12T03:57:02;21.57;;;9.30;;
7821;SDS011;3956;50.558;9.678;2022-09-12T03:59:31;13.07;;;8.13;;
7821;SDS011;3956;50.558;9.678;2022-09-12T04:01:59;74.43;;;50.27;;
7821;SDS011;3956;50.558;9.678;2022-09-12T04:04:27;17.17;;;9.80;;
7821;SDS011;3956;50.558;9.678;2022-09-12T04:06:56;18.67;;;8.77;;
7821;SDS011;3956;50.558;9.678;2022-09-12T04:09:26;16.27;;;9.23;;
7821;SDS011;3956;50.558;9.678;2022-09-12T04:11:54;17.70;;;9.60;;
7821;SDS011;3956;50.558;9.678;2022-09-12T04:14:22;57.93;;;12.03;;
7821;SDS011;3956;50.558;9.678;2022-09-12T04:16:51;99.27;;;12.17;;
7821;SDS011;3956;50.558;9.678;2022-09-12T04:19:19;55.33;;;13.37;;
7821;SDS011;3956;50.558;9.678;2022-09-12T04:21:49;53.27;;;12.00;;
7821;SDS011;3956;50.558;9.678;2022-09-12T04:24:17;42.23;;;12.63;;
7821;SDS011;3956;50.558;9.678;2022-09-12T04:26:48;42.00;;;10.67;;
7821;SDS011;3956;50.558;9.678;2022-09-12T04:29:17;59.20;;;11.03;;
7821;SDS011;3956;50.558;9.678;2022-09-12T04:31:54;39.97;;;10.87;;
7821;SDS011;3956;50.558;9.678;2022-09-12T04:34:28;19.23;;;9.90;;
7821;SDS011;3956;50.558;9.678;2022-09-12T04:36:57;28.67;;;11.37;;
7821;SDS011;3956;50.558;9.678;2022-09-12T04:39:33;31.23;;;11.27;;
7821;SDS011;3956;50.558;9.678;2022-09-12T04:42:10;34.20;;;12.00;;
7821;SDS011;3956;50.558;9.678;2022-09-12T04:44:44;39.60;;;11.83;;
7821;SDS011;3956;50.558;9.678;2022-09-12T04:47:14;60.80;;;11.47;;
7821;SDS011;3956;50.558;9.678;2022-09-12T04:49:56;36.63;;;10.60;;
7821;SDS011;3956;50.558;9.678;2022-09-12T04:52:30;42.97;;;10.37;;
7821;SDS011;3956;50.558;9.678;2022-09-12T04:55:04;32.37;;;11.47;;
7821;SDS011;3956;50.558;9.678;2022-09-12T04:57:35;36.43;;;12.17;;
7821;SDS011;3956;50.558;9.678;2022-09-12T05:00:04;28.57;;;12.27;;
7821;SDS011;3956;50.558;9.678;2022-09-12T05:02:33;29.43;;;12.30;;
7821;SDS011;3956;50.558;9.678;2022-09-12T05:05:01;26.07;;;12.90;;
7821;SDS011;3956;50.558;9.678;2022-09-12T05:07:31;48.17;;;12.80;;
7821;SDS011;3956;50.558;9.678;2022-09-12T05:10:08;22.77;;;11.60;;
7821;SDS011;3956;50.558;9.678;2022-09-12T05:12:45;29.27;;;11.80;;
7821;SDS011;3956;50.558;9.678;2022-09-12T05:15:15;19.47;;;11.20;;
7821;SDS011;3956;50.558;9.678;2022-09-12T05:17:54;24.27;;;12.90;;
7821;SDS011;3956;50.558;9.678;2022-09-12T05:20:23;20.30;;;12.17;;
7821;SDS011;3956;50.558;9.678;2022-09-12T05:23:37;30.77;;;12.43;;
7821;SDS011;3956;50.558;9.678;2022-09-12T05:26:13;34.90;;;12.40;;
7821;SDS011;3956;50.558;9.678;2022-09-12T05:28:48;59.93;;;12.80;;
7821;SDS011;3956;50.558;9.678;2022-09-12T05:31:25;28.53;;;13.17;;
7821;SDS011;3956;50.558;9.678;2022-09-12T05:34:06;18.93;;;11.47;;
7821;SDS011;3956;50.558;9.678;2022-09-12T05:36:56;26.83;;;11.77;;
7821;SDS011;3956;50.558;9.678;2022-09-12T05:40:12;30.00;;;12.30;;
7821;SDS011;3956;50.558;9.678;2022-09-12T05:47:02;15.10;;;11.47;;
7821;SDS011;3956;50.558;9.678;2022-09-12T05:49:33;14.57;;;11.63;;
7821;SDS011;3956;50.558;9.678;2022-09-12T05:52:37;16.43;;;12.00;;
7821;SDS011;3956;50.558;9.678;2022-09-12T05:55:08;17.70;;;11.50;;
7821;SDS011;3956;50.558;9.678;2022-09-12T05:58:09;15.60;;;11.00;;
7821;SDS011;3956;50.558;9.678;2022-09-12T06:01:00;14.97;;;11.23;;
7821;SDS011;3956;50.558;9.678;2022-09-12T06:03:32;20.33;;;11.60;;
7821;SDS011;3956;50.558;9.678;2022-09-12T06:06:04;16.37;;;11.47;;
7821;SDS011;3956;50.558;9.678;2022-09-12T06:09:02;14.30;;;10.07;;
7821;SDS011;3956;50.558;9.678;2022-09-12T06:11:48;17.80;;;10.43;;
7821;SDS011;3956;50.558;9.678;2022-09-12T06:14:29;15.93;;;11.47;;
7821;SDS011;3956;50.558;9.678;2022-09-12T06:17:05;35.80;;;11.60;;
7821;SDS011;3956;50.558;9.678;2022-09-12T06:19:42;30.10;;;10.03;;
7821;SDS011;3956;50.558;9.678;2022-09-12T06:22:14;15.83;;;9.83;;
7821;SDS011;3956;50.558;9.678;2022-09-12T06:24:46;18.57;;;8.73;;
7821;SDS011;3956;50.558;9.678;2022-09-12T06:27:16;45.70;;;11.63;;
7821;SDS011;3956;50.558;9.678;2022-09-12T06:30:00;25.70;;;9.30;;
7821;SDS011;3956;50.558;9.678;2022-09-12T06:32:32;23.93;;;10.27;;
7821;SDS011;3956;50.558;9.678;2022-09-12T06:35:07;18.63;;;10.47;;
7821;SDS011;3956;50.558;9.678;2022-09-12T06:37:40;16.73;;;10.77;;
7821;SDS011;3956;50.558;9.678;2022-09-12T06:40:23;16.30;;;11.33;;
7821;SDS011;3956;50.558;9.678;2022-09-12T06:43:02;14.47;;;10.47;;
7821;SDS011;3956;50.558;9.678;2022-09-12T06:45:50;30.40;;;10.47;;
7821;SDS011;3956;50.558;9.678;2022-09-12T06:48:24;22.77;;;11.37;;
7821;SDS011;3956;50.558;9.678;2022-09-12T06:51:08;15.50;;;10.70;;
7821;SDS011;3956;50.558;9.678;2022-09-12T06:53:43;25.77;;;10.30;;
7821;SDS011;3956;50.558;9.678;2022-09-12T06:56:15;20.20;;;10.47;;
7821;SDS011;3956;50.558;9.678;2022-09-12T06:58:50;13.93;;;9.77;;
7821;SDS011;3956;50.558;9.678;2022-09-12T07:01:21;15.87;;;10.03;;
7821;SDS011;3956;50.558;9.678;2022-09-12T07:03:51;20.60;;;9.97;;
7821;SDS011;3956;50.558;9.678;2022-09-12T07:06:25;16.40;;;9.90;;
7821;SDS011;3956;50.558;9.678;2022-09-12T07:08:58;81.03;;;11.70;;
7821;SDS011;3956;50.558;9.678;2022-09-12T07:11:37;16.83;;;10.43;;
7821;SDS011;3956;50.558;9.678;2022-09-12T07:14:16;20.87;;;10.97;;
7821;SDS011;3956;50.558;9.678;2022-09-12T07:16:54;17.47;;;9.97;;
7821;SDS011;3956;50.558;9.678;2022-09-12T07:19:24;15.80;;;10.43;;
7821;SDS011;3956;50.558;9.678;2022-09-12T07:22:09;13.33;;;9.67;;
7821;SDS011;3956;50.558;9.678;2022-09-12T07:24:45;31.50;;;11.57;;
7821;SDS011;3956;50.558;9.678;2022-09-12T07:27:16;15.13;;;11.33;;
7821;SDS011;3956;50.558;9.678;2022-09-12T07:29:46;15.80;;;11.67;;
7821;SDS011;3956;50.558;9.678;2022-09-12T07:32:15;114.53;;;13.33;;
7821;SDS011;3956;50.558;9.678;2022-09-12T07:34:44;14.87;;;11.00;;
7821;SDS011;3956;50.558;9.678;2022-09-12T07:37:15;15.10;;;11.70;;
7821;SDS011;3956;50.558;9.678;2022-09-12T07:39:45;15.73;;;11.43;;
7821;SDS011;3956;50.558;9.678;2022-09-12T07:42:21;16.07;;;12.77;;
7821;SDS011;3956;50.558;9.678;2022-09-12T07:44:50;16.03;;;12.37;;
7821;SDS011;3956;50.558;9.678;2022-09-12T07:47:22;21.27;;;13.43;;
7821;SDS011;3956;50.558;9.678;2022-09-12T07:49:52;17.50;;;12.60;;
7821;SDS011;3956;50.558;9.678;2022-09-12T07:52:23;19.30;;;13.10;;
7821;SDS011;3956;50.558;9.678;2022-09-12T07:54:51;16.93;;;13.83;;
7821;SDS011;3956;50.558;9.678;2022-09-12T07:57:19;18.30;;;13.67;;
7821;SDS011;3956;50.558;9.678;2022-09-12T07:59:51;19.33;;;14.73;;
7821;SDS011;3956;50.558;9.678;2022-09-12T08:02:19;25.13;;;14.67;;
7821;SDS011;3956;50.558;9.678;2022-09-12T08:04:48;17.07;;;12.40;;
7821;SDS011;3956;50.558;9.678;2022-09-12T08:07:16;14.90;;;12.13;;
7821;SDS011;3956;50.558;9.678;2022-09-12T08:09:47;13.90;;;12.10;;
7821;SDS011;3956;50.558;9.678;2022-09-12T08:12:18;16.60;;;13.00;;
7821;SDS011;3956;50.558;9.678;2022-09-12T08:14:54;13.77;;;11.57;;
7821;SDS011;3956;50.558;9.678;2022-09-12T08:17:25;12.87;;;11.40;;
7821;SDS011;3956;50.558;9.678;2022-09-12T08:20:26;12.83;;;10.97;;
7821;SDS011;3956;50.558;9.678;2022-09-12T08:23:19;10.67;;;9.57;;
7821;SDS011;3956;50.558;9.678;2022-09-12T08:26:13;12.63;;;8.80;;
7821;SDS011;3956;50.558;9.678;2022-09-12T08:28:55;10.80;;;8.63;;
7821;SDS011;3956;50.558;9.678;2022-09-12T08:31:25;11.47;;;9.73;;
7821;SDS011;3956;50.558;9.678;2022-09-12T08:33:54;12.13;;;9.40;;
7821;SDS011;3956;50.558;9.678;2022-09-12T08:36:23;10.40;;;8.40;;
7821;SDS011;3956;50.558;9.678;2022-09-12T08:38:55;10.47;;;9.37;;
7821;SDS011;3956;50.558;9.678;2022-09-12T08:41:29;10.83;;;9.30;;
7821;SDS011;3956;50.558;9.678;2022-09-12T08:44:17;10.90;;;9.47;;
7821;SDS011;3956;50.558;9.678;2022-09-12T08:47:31;12.70;;;10.40;;
7821;SDS011;3956;50.558;9.678;2022-09-12T08:50:05;11.37;;;10.17;;
7821;SDS011;3956;50.558;9.678;2022-09-12T08:52:42;12.93;;;10.97;;
7821;SDS011;3956;50.558;9.678;2022-09-12T08:55:25;13.00;;;11.03;;
7821;SDS011;3956;50.558;9.678;2022-09-12T08:58:06;12.90;;;10.33;;
7821;SDS011;3956;50.558;9.678;2022-09-12T09:00:53;11.87;;;10.50;;
7821;SDS011;3956;50.558;9.678;2022-09-12T09:07:05;10.37;;;9.13;;
7821;SDS011;3956;50.558;9.678;2022-09-12T09:10:07;11.07;;;9.87;;
7821;SDS011;3956;50.558;9.678;2022-09-12T09:12:47;10.83;;;9.50;;
7821;SDS011;3956;50.558;9.678;2022-09-12T09:15:30;13.13;;;10.53;;
7821;SDS011;3956;50.558;9.678;2022-09-12T09:18:19;16.07;;;11.33;;
7821;SDS011;3956;50.558;9.678;2022-09-12T09:20:51;19.40;;;11.23;;
7821;SDS011;3956;50.558;9.678;2022-09-12T09:23:29;13.90;;;10.23;;
7821;SDS011;3956;50.558;9.678;2022-09-12T09:26:11;13.43;;;10.20;;
7821;SDS011;3956;50.558;9.678;2022-09-12T09:28:57;13.37;;;10.43;;
7821;SDS011;3956;50.558;9.678;2022-09-12T09:31:31;13.57;;;9.70;;
7821;SDS011;3956;50.558;9.678;2022-09-12T09:34:09;12.03;;;8.30;;
7821;SDS011;3956;50.558;9.678;2022-09-12T09:36:46;11.90;;;8.60;;
7821;SDS011;3956;50.558;9.678;2022-09-12T09:39:32;11.37;;;8.63;;
7821;SDS011;3956;50.558;9.678;2022-09-12T09:42:26;12.87;;;7.80;;
7821;SDS011;3956;50.558;9.678;2022-09-12T09:45:11;10.03;;;7.73;;
7821;SDS011;3956;50.558;9.678;2022-09-12T09:47:52;10.40;;;8.40;;
7821;SDS011;3956;50.558;9.678;2022-09-12T09:50:35;7.47;;;5.97;;
7821;SDS011;3956;50.558;9.678;2022-09-12T09:53:08;5.43;;;4.50;;
7821;SDS011;3956;50.558;9.678;2022-09-12T09:55:49;5.83;;;4.93;;
7821;SDS011;3956;50.558;9.678;2022-09-12T09:58:31;4.80;;;4.00;;
7821;SDS011;3956;50.558;9.678;2022-09-12T10:01:02;4.67;;;4.17;;
7821;SDS011;3956;50.558;9.678;2022-09-12T10:03:54;5.13;;;4.57;;
7821;SDS011;3956;50.558;9.678;2022-09-12T10:06:29;5.47;;;4.53;;
7821;SDS011;3956;50.558;9.678;2022-09-12T10:09:05;5.70;;;4.63;;
7821;SDS011;3956;50.558;9.678;2022-09-12T10:11:45;6.73;;;5.60;;
7821;SDS011;3956;50.558;9.678;2022-09-12T10:14:35;5.57;;;4.73;;
7821;SDS011;3956;50.558;9.678;2022-09-12T10:17:25;8.03;;;5.73;;
7821;SDS011;3956;50.558;9.678;2022-09-12T10:20:04;7.70;;;5.83;;
7821;SDS011;3956;50.558;9.678;2022-09-12T10:23:02;7.40;;;5.13;;
7821;SDS011;3956;50.558;9.678;2022-09-12T10:25:51;5.20;;;4.70;;
7821;SDS011;3956;50.558;9.678;2022-09-12T10:28:30;5.60;;;4.53;;
7821;SDS011;3956;50.558;9.678;2022-09-12T10:31:12;6.00;;;5.17;;
7821;SDS011;3956;50.558;9.678;2022-09-12T10:33:52;5.77;;;5.13;;
7821;SDS011;3956;50.558;9.678;2022-09-12T10:36:23;7.83;;;5.07;;
7821;SDS011;3956;50.558;9.678;2022-09-12T10:38:54;5.70;;;4.67;;
7821;SDS011;3956;50.558;9.678;2022-09-12T10:42:11;6.13;;;4.80;;
7821;SDS011;3956;50.558;9.678;2022-09-12T10:45:02;6.93;;;5.13;;
7821;SDS011;3956;50.558;9.678;2022-09-12T10:47:55;5.47;;;4.40;;
7821;SDS011;3956;50.558;9.678;2022-09-12T10:50:42;6.60;;;4.90;;
7821;SDS011;3956;50.558;9.678;2022-09-12T10:53:20;6.03;;;4.83;;
7821;SDS011;3956;50.558;9.678;2022-09-12T10:56:06;6.83;;;4.40;;
7821;SDS011;3956;50.558;9.678;2022-09-12T10:58:52;4.43;;;4.03;;
7821;SDS011;3956;50.558;9.678;2022-09-12T11:01:40;5.80;;;4.50;;
7821;SDS011;3956;50.558;9.678;2022-09-12T11:04:22;7.00;;;4.70;;
7821;SDS011;3956;50.558;9.678;2022-09-12T11:07:06;10.10;;;8.27;;
7821;SDS011;3956;50.558;9.678;2022-09-12T11:10:01;7.73;;;4.97;;
7821;SDS011;3956;50.558;9.678;2022-09-12T11:12:46;6.50;;;4.80;;
7821;SDS011;3956;50.558;9.678;2022-09-12T11:15:29;6.73;;;5.20;;
7821;SDS011;3956;50.558;9.678;2022-09-12T11:18:09;8.60;;;5.17;;
7821;SDS011;3956;50.558;9.678;2022-09-12T11:21:05;9.53;;;4.90;;
7821;SDS011;3956;50.558;9.678;2022-09-12T11:24:20;7.93;;;5.07;;
7821;SDS011;3956;50.558;9.678;2022-09-12T11:27:16;7.37;;;4.73;;
7821;SDS011;3956;50.558;9.678;2022-09-12T11:30:17;6.27;;;4.37;;
7821;SDS011;3956;50.558;9.678;2022-09-12T11:33:06;7.13;;;4.33;;
7821;SDS011;3956;50.558;9.678;2022-09-12T11:35:58;6.23;;;4.70;;
7821;SDS011;3956;50.558;9.678;2022-09-12T11:38:47;5.60;;;4.20;;
7821;SDS011;3956;50.558;9.678;2022-09-12T11:41:26;4.77;;;3.70;;
7821;SDS011;3956;50.558;9.678;2022-09-12T11:44:01;4.20;;;3.63;;
7821;SDS011;3956;50.558;9.678;2022-09-12T11:46:38;9.03;;;4.13;;
7821;SDS011;3956;50.558;9.678;2022-09-12T11:49:22;7.00;;;4.37;;
7821;SDS011;3956;50.558;9.678;2022-09-12T11:52:03;5.03;;;3.93;;
7821;SDS011;3956;50.558;9.678;2022-09-12T11:54:41;5.47;;;4.10;;
7821;SDS011;3956;50.558;9.678;2022-09-12T11:57:24;5.03;;;3.80;;
7821;SDS011;3956;50.558;9.678;2022-09-12T12:03:49;6.00;;;3.80;;
7821;SDS011;3956;50.558;9.678;2022-09-12T12:06:23;4.20;;;3.53;;
7821;SDS011;3956;50.558;9.678;2022-09-12T12:08:57;4.43;;;3.90;;
7821;SDS011;3956;50.558;9.678;2022-09-12T12:11:31;7.57;;;3.77;;
7821;SDS011;3956;50.558;9.678;2022-09-12T12:14:42;6.07;;;3.27;;
7821;SDS011;3956;50.558;9.678;2022-09-12T12:17:19;6.60;;;4.87;;
7821;SDS011;3956;50.558;9.678;2022-09-12T12:19:58;4.93;;;3.80;;
7821;SDS011;3956;50.558;9.678;2022-09-12T12:22:33;5.00;;;4.10;;
7821;SDS011;3956;50.558;9.678;2022-09-12T12:25:22;4.57;;;3.93;;
7821;SDS011;3956;50.558;9.678;2022-09-12T12:27:56;5.03;;;3.80;;
7821;SDS011;3956;50.558;9.678;2022-09-12T12:36:56;6.03;;;3.73;;
7821;SDS011;3956;50.558;9.678;2022-09-12T12:45:58;4.60;;;3.63;;
7821;SDS011;3956;50.558;9.678;2022-09-12T12:48:45;5.60;;;3.80;;
7821;SDS011;3956;50.558;9.678;2022-09-12T12:54:30;5.83;;;3.73;;
7821;SDS011;3956;50.558;9.678;2022-09-12T12:57:28;5.83;;;3.50;;
7821;SDS011;3956;50.558;9.678;2022-09-12T13:00:04;4.40;;;3.90;;
7821;SDS011;3956;50.558;9.678;2022-09-12T13:02:39;3.73;;;3.30;;
7821;SDS011;3956;50.558;9.678;2022-09-12T13:05:21;4.63;;;3.43;;
7821;SDS011;3956;50.558;9.678;2022-09-12T13:07:56;4.67;;;3.53;;
7821;SDS011;3956;50.558;9.678;2022-09-12T13:10:46;5.13;;;3.37;;
7821;SDS011;3956;50.558;9.678;2022-09-12T13:13:21;5.07;;;3.63;;
7821;SDS011;3956;50.558;9.678;2022-09-12T13:15:54;3.90;;;3.10;;
7821;SDS011;3956;50.558;9.678;2022-09-12T13:18:23;3.47;;;3.10;;
7821;SDS011;3956;50.558;9.678;2022-09-12T13:21:25;4.60;;;3.23;;
7821;SDS011;3956;50.558;9.678;2022-09-12T13:24:28;3.67;;;3.00;;
7821;SDS011;3956;50.558;9.678;2022-09-12T13:27:13;6.37;;;3.23;;
7821;SDS011;3956;50.558;9.678;2022-09-12T13:30:10;8.10;;;3.47;;
7821;SDS011;3956;50.558;9.678;2022-09-12T13:32:44;4.73;;;3.57;;
7821;SDS011;3956;50.558;9.678;2022-09-12T13:35:21;5.53;;;3.33;;
7821;SDS011;3956;50.558;9.678;2022-09-12T13:38:04;4.83;;;3.30;;
7821;SDS011;3956;50.558;9.678;2022-09-12T13:41:12;3.50;;;3.00;;
7821;SDS011;3956;50.558;9.678;2022-09-12T13:48:05;3.70;;;2.83;;
7821;SDS011;3956;50.558;9.678;2022-09-12T13:50:52;4.03;;;3.00;;
7821;SDS011;3956;50.558;9.678;2022-09-12T13:53:27;2.80;;;2.57;;
7821;SDS011;3956;50.558;9.678;2022-09-12T13:56:48;3.00;;;2.70;;
7821;SDS011;3956;50.558;9.678;2022-09-12T14:00:15;3.93;;;3.00;;
7821;SDS011;3956;50.558;9.678;2022-09-12T14:02:55;5.57;;;2.57;;
7821;SDS011;3956;50.558;9.678;2022-09-12T14:13:10;3.40;;;2.83;;
7821;SDS011;3956;50.558;9.678;2022-09-12T14:16:02;4.07;;;2.50;;
7821;SDS011;3956;50.558;9.678;2022-09-12T14:18:40;4.10;;;2.27;;
7821;SDS011;3956;50.558;9.678;2022-09-12T14:21:24;4.73;;;2.47;;
7821;SDS011;3956;50.558;9.678;2022-09-12T14:24:05;2.93;;;2.63;;
7821;SDS011;3956;50.558;9.678;2022-09-12T14:26:39;1.80;;;1.60;;
7821;SDS011;3956;50.558;9.678;2022-09-12T14:29:20;4.47;;;1.80;;
7821;SDS011;3956;50.558;9.678;2022-09-12T14:32:00;3.10;;;2.40;;
7821;SDS011;3956;50.558;9.678;2022-09-12T14:34:30;3.10;;;2.23;;
7821;SDS011;3956;50.558;9.678;2022-09-12T14:36:58;2.40;;;2.20;;
7821;SDS011;3956;50.558;9.678;2022-09-12T14:39:36;2.50;;;2.30;;
7821;SDS011;3956;50.558;9.678;2022-09-12T14:42:21;2.40;;;2.20;;
7821;SDS011;3956;50.558;9.678;2022-09-12T14:45:14;3.53;;;2.13;;
7821;SDS011;3956;50.558;9.678;2022-09-12T14:47:48;2.30;;;2.10;;
7821;SDS011;3956;50.558;9.678;2022-09-12T14:50:25;4.10;;;2.57;;
7821;SDS011;3956;50.558;9.678;2022-09-12T14:53:05;2.87;;;2.57;;
7821;SDS011;3956;50.558;9.678;2022-09-12T14:55:58;2.10;;;1.90;;
7821;SDS011;3956;50.558;9.678;2022-09-12T14:58:51;2.57;;;1.90;;
7821;SDS011;3956;50.558;9.678;2022-09-12T15:02:32;3.33;;;2.10;;
7821;SDS011;3956;50.558;9.678;2022-09-12T15:05:26;2.53;;;2.13;;
7821;SDS011;3956;50.558;9.678;2022-09-12T15:08:12;2.67;;;1.80;;
7821;SDS011;3956;50.558;9.678;2022-09-12T15:10:52;3.00;;;2.40;;
7821;SDS011;3956;50.558;9.678;2022-09-12T15:13:37;2.53;;;2.20;;
7821;SDS011;3956;50.558;9.678;2022-09-12T15:16:14;2.50;;;2.10;;
7821;SDS011;3956;50.558;9.678;2022-09-12T15:18:56;2.70;;;2.00;;
7821;SDS011;3956;50.558;9.678;2022-09-12T15:21:34;2.27;;;1.90;;
7821;SDS011;3956;50.558;9.678;2022-09-12T15:24:03;2.80;;;2.10;;
7821;SDS011;3956;50.558;9.678;2022-09-12T15:26:38;3.30;;;1.93;;
7821;SDS011;3956;50.558;9.678;2022-09-12T15:29:16;2.60;;;1.93;;
7821;SDS011;3956;50.558;9.678;2022-09-12T15:32:00;4.37;;;2.00;;
7821;SDS011;3956;50.558;9.678;2022-09-12T15:41:31;2.67;;;2.47;;
7821;SDS011;3956;50.558;9.678;2022-09-12T15:44:11;3.17;;;2.10;;
7821;SDS011;3956;50.558;9.678;2022-09-12T15:47:12;2.10;;;1.90;;
7821;SDS011;3956;50.558;9.678;2022-09-12T15:49:51;3.40;;;2.20;;
7821;SDS011;3956;50.558;9.678;2022-09-12T15:52:24;2.23;;;2.03;;
7821;SDS011;3956;50.558;9.678;2022-09-12T15:55:03;2.07;;;1.83;;
7821;SDS011;3956;50.558;9.678;2022-09-12T15:57:41;3.27;;;2.10;;
7821;SDS011;3956;50.558;9.678;2022-09-12T16:00:11;2.80;;;2.03;;
7821;SDS011;3956;50.558;9.678;2022-09-12T16:02:49;3.50;;;2.10;;
7821;SDS011;3956;50.558;9.678;2022-09-12T16:05:31;2.30;;;2.10;;
7821;SDS011;3956;50.558;9.678;2022-09-12T16:08:11;2.33;;;2.00;;
7821;SDS011;3956;50.558;9.678;2022-09-12T16:10:44;3.90;;;2.30;;
7821;SDS011;3956;50.558;9.678;2022-09-12T16:13:20;4.13;;;2.37;;
7821;SDS011;3956;50.558;9.678;2022-09-12T16:16:16;4.07;;;2.00;;
7821;SDS011;3956;50.558;9.678;2022-09-12T16:18:51;4.50;;;2.00;;
7821;SDS011;3956;50.558;9.678;2022-09-12T16:21:19;2.83;;;2.10;;
7821;SDS011;3956;50.558;9.678;2022-09-12T16:23:49;3.17;;;2.40;;
7821;SDS011;3956;50.558;9.678;2022-09-12T16:26:19;3.00;;;2.67;;
7821;SDS011;3956;50.558;9.678;2022-09-12T16:28:52;4.27;;;2.57;;
7821;SDS011;3956;50.558;9.678;2022-09-12T16:31:22;3.50;;;2.50;;
7821;SDS011;3956;50.558;9.678;2022-09-12T16:34:05;2.87;;;2.67;;
7821;SDS011;3956;50.558;9.678;2022-09-12T16:36:41;2.63;;;2.30;;
7821;SDS011;3956;50.558;9.678;2022-09-12T16:39:16;3.87;;;2.83;;
7821;SDS011;3956;50.558;9.678;2022-09-12T16:41:52;2.67;;;2.47;;
7821;SDS011;3956;50.558;9.678;2022-09-12T16:44:23;3.87;;;2.60;;
7821;SDS011;3956;50.558;9.678;2022-09-12T16:46:54;2.80;;;2.40;;
7821;SDS011;3956;50.558;9.678;2022-09-12T16:49:26;4.43;;;3.07;;
7821;SDS011;3956;50.558;9.678;2022-09-12T16:52:00;2.87;;;2.60;;
7821;SDS011;3956;50.558;9.678;2022-09-12T16:54:38;2.70;;;2.50;;
7821;SDS011;3956;50.558;9.678;2022-09-12T16:57:21;2.90;;;2.60;;
7821;SDS011;3956;50.558;9.678;2022-09-12T16:59:53;3.80;;;2.90;;
7821;SDS011;3956;50.558;9.678;2022-09-12T17:02:27;3.47;;;3.00;;
7821;SDS011;3956;50.558;9.678;2022-09-12T17:05:07;4.33;;;3.00;;